createdAt,value
2023-01-10T00:00:25.415Z,1003.03
2023-01-10T00:01:25.317Z,1003.07
2023-01-10T00:02:25.305Z,1003.11
2023-01-10T00:03:25.271Z,1003.16
2023-01-10T00:04:25.352Z,1003.13
2023-01-10T00:05:25.231Z,1003.12
2023-01-10T00:06:25.242Z,1003.15
2023-01-10T00:07:25.235Z,1003.14
2023-01-10T00:08:25.223Z,1003.11
2023-01-10T00:09:25.196Z,1003.21
2023-01-10T00:10:25.364Z,1003.14
2023-01-10T00:11:25.185Z,1003.17
2023-01-10T00:12:25.194Z,1003.15
2023-01-10T00:13:25.219Z,1003.20
2023-01-10T00:14:25.153Z,1003.20
2023-01-10T00:15:25.126Z,1003.25
2023-01-10T00:16:25.195Z,1003.25
2023-01-10T00:17:25.125Z,1003.28
2023-01-10T00:18:25.139Z,1003.31
2023-01-10T00:19:25.123Z,1003.36
2023-01-10T00:20:25.116Z,1003.42
2023-01-10T00:21:25.087Z,1003.44
2023-01-10T00:22:25.111Z,1003.46
2023-01-10T00:23:25.041Z,1003.48
2023-01-10T00:24:25.039Z,1003.48
2023-01-10T00:25:25.024Z,1003.55
2023-01-10T00:26:25.015Z,1003.53
2023-01-10T00:27:25.000Z,1003.62
2023-01-10T00:28:24.985Z,1003.59
2023-01-10T00:29:24.997Z,1003.65
2023-01-10T00:30:24.958Z,1003.67
2023-01-10T00:31:25.076Z,1003.68
2023-01-10T00:32:24.946Z,1003.59
2023-01-10T00:33:24.958Z,1003.71
2023-01-10T00:34:24.931Z,1003.73
2023-01-10T00:35:24.945Z,1003.77
2023-01-10T00:36:24.885Z,1003.84
2023-01-10T00:37:24.897Z,1003.81
2023-01-10T00:38:24.878Z,1003.83
2023-01-10T00:39:24.901Z,1003.87
2023-01-10T00:40:24.849Z,1003.86
2023-01-10T00:41:24.881Z,1003.92
2023-01-10T00:42:24.821Z,1003.95
2023-01-10T00:43:24.817Z,1003.97
2023-01-10T00:44:24.802Z,1003.98
2023-01-10T00:45:24.792Z,1003.97
2023-01-10T00:46:24.843Z,1004.03
2023-01-10T00:47:24.814Z,1004.07
2023-01-10T00:48:24.824Z,1004.10
2023-01-10T00:49:24.767Z,1004.05
2023-01-10T00:50:25.655Z,1004.10
2023-01-10T00:51:24.768Z,1004.14
2023-01-10T00:52:24.725Z,1004.10
2023-01-10T00:53:24.751Z,1004.12
2023-01-10T00:54:24.684Z,1004.17
2023-01-10T00:55:24.707Z,1004.16
2023-01-10T00:56:24.682Z,1004.20
2023-01-10T00:57:24.687Z,1004.16
2023-01-10T00:58:24.652Z,1004.19
2023-01-10T00:59:24.691Z,1004.19
2023-01-10T01:00:24.645Z,1004.26
2023-01-10T01:01:24.730Z,1004.25
2023-01-10T01:02:24.794Z,1004.28
2023-01-10T01:03:24.596Z,1004.29
2023-01-10T01:04:24.592Z,1004.27
2023-01-10T01:05:24.617Z,1004.31
2023-01-10T01:06:24.567Z,1004.32
2023-01-10T01:07:24.572Z,1004.30
2023-01-10T01:08:24.531Z,1004.43
2023-01-10T01:09:24.527Z,1004.42
2023-01-10T01:10:24.532Z,1004.45
2023-01-10T01:11:24.534Z,1004.48
2023-01-10T01:12:24.498Z,1004.51
2023-01-10T01:13:24.499Z,1004.49
2023-01-10T01:14:24.501Z,1004.57
2023-01-10T01:15:24.463Z,1004.62
2023-01-10T01:16:24.452Z,1004.65
2023-01-10T01:17:24.478Z,1004.64
2023-01-10T01:18:24.433Z,1004.75
2023-01-10T01:19:24.417Z,1004.76
2023-01-10T01:20:24.410Z,1004.74
2023-01-10T01:21:24.384Z,1004.77
2023-01-10T01:22:24.383Z,1004.77
2023-01-10T01:23:24.399Z,1004.84
2023-01-10T01:24:24.355Z,1004.88
2023-01-10T01:25:24.353Z,1004.90
2023-01-10T01:26:24.360Z,1004.97
2023-01-10T01:27:24.329Z,1004.93
2023-01-10T01:28:24.326Z,1005.05
2023-01-10T01:29:26.262Z,1005.05
2023-01-10T01:30:24.290Z,1005.11
2023-01-10T01:31:24.325Z,1005.14
2023-01-10T01:32:24.297Z,1005.20
2023-01-10T01:33:24.250Z,1005.28
2023-01-10T01:34:24.256Z,1005.24
2023-01-10T01:35:24.251Z,1005.26
2023-01-10T01:36:24.224Z,1005.29
2023-01-10T01:37:24.231Z,1005.25
2023-01-10T01:38:24.275Z,1005.26
2023-01-10T01:39:24.190Z,1005.23
2023-01-10T01:40:24.213Z,1005.29
2023-01-10T01:41:24.177Z,1005.28
2023-01-10T01:42:24.146Z,1005.29
2023-01-10T01:43:24.135Z,1005.36
2023-01-10T01:44:24.139Z,1005.33
2023-01-10T01:45:24.119Z,1005.35
2023-01-10T01:46:24.147Z,1005.36
2023-01-10T01:47:24.098Z,1005.33
2023-01-10T01:48:24.074Z,1005.38
2023-01-10T01:49:24.079Z,1005.31
2023-01-10T01:50:24.097Z,1005.35
2023-01-10T01:51:24.061Z,1005.38
2023-01-10T01:52:24.068Z,1005.41
2023-01-10T01:53:24.042Z,1005.43
2023-01-10T01:54:24.014Z,1005.47
2023-01-10T01:55:24.012Z,1005.48
2023-01-10T01:56:24.037Z,1005.51
2023-01-10T01:57:23.994Z,1005.53
2023-01-10T01:58:24.018Z,1005.48
2023-01-10T01:59:23.995Z,1005.51
2023-01-10T02:00:23.947Z,1005.50
2023-01-10T02:01:24.111Z,1005.52
2023-01-10T02:02:23.995Z,1005.53
2023-01-10T02:03:24.025Z,1005.50
2023-01-10T02:04:23.963Z,1005.49
2023-01-10T02:05:23.916Z,1005.45
2023-01-10T02:06:23.889Z,1005.42
2023-01-10T02:07:23.859Z,1005.40
2023-01-10T02:08:23.897Z,1005.45
2023-01-10T02:09:23.843Z,1005.51
2023-01-10T02:10:23.863Z,1005.50
2023-01-10T02:11:23.836Z,1005.48
2023-01-10T02:12:23.846Z,1005.50
2023-01-10T02:13:23.796Z,1005.49
2023-01-10T02:14:23.815Z,1005.52
2023-01-10T02:15:23.803Z,1005.53
2023-01-10T02:16:23.767Z,1005.51
2023-01-10T02:17:23.772Z,1005.52
2023-01-10T02:18:23.746Z,1005.50
2023-01-10T02:19:23.758Z,1005.50
2023-01-10T02:20:23.724Z,1005.52
2023-01-10T02:21:23.771Z,1005.55
2023-01-10T02:22:23.702Z,1005.60
2023-01-10T02:23:23.710Z,1005.56
2023-01-10T02:24:23.727Z,1005.63
2023-01-10T02:25:23.652Z,1005.59
2023-01-10T02:26:23.652Z,1005.58
2023-01-10T02:27:23.662Z,1005.62
2023-01-10T02:28:23.648Z,1005.60
2023-01-10T02:29:23.631Z,1005.65
2023-01-10T02:30:23.604Z,1005.61
2023-01-10T02:31:23.674Z,1005.67
2023-01-10T02:32:40.680Z,1005.64
2023-01-10T02:33:23.638Z,1005.66
2023-01-10T02:34:23.574Z,1005.61
2023-01-10T02:35:23.551Z,1005.60
2023-01-10T02:36:23.558Z,1005.59
2023-01-10T02:37:23.545Z,1005.61
2023-01-10T02:38:23.528Z,1005.64
2023-01-10T02:39:23.561Z,1005.65
2023-01-10T02:40:23.501Z,1005.66
2023-01-10T02:41:23.481Z,1005.64
2023-01-10T02:42:23.499Z,1005.62
2023-01-10T02:43:23.486Z,1005.65
2023-01-10T02:44:23.453Z,1005.63
2023-01-10T02:45:23.471Z,1005.68
2023-01-10T02:46:23.498Z,1005.66
2023-01-10T02:47:23.440Z,1005.65
2023-01-10T02:48:23.450Z,1005.64
2023-01-10T02:49:23.420Z,1005.68
2023-01-10T02:50:23.464Z,1005.66
2023-01-10T02:51:23.455Z,1005.66
2023-01-10T02:52:23.390Z,1005.71
2023-01-10T02:53:23.351Z,1005.72
2023-01-10T02:54:23.340Z,1005.70
2023-01-10T02:55:23.323Z,1005.71
2023-01-10T02:56:23.306Z,1005.74
2023-01-10T02:57:23.354Z,1005.71
2023-01-10T02:58:23.316Z,1005.70
2023-01-10T02:59:23.286Z,1005.75
2023-01-10T03:00:23.266Z,1005.74
2023-01-10T03:01:23.373Z,1005.77
2023-01-10T03:02:23.259Z,1005.75
2023-01-10T03:03:23.285Z,1005.78
2023-01-10T03:04:23.222Z,1005.90
2023-01-10T03:05:23.230Z,1005.91
2023-01-10T03:06:23.208Z,1005.94
2023-01-10T03:07:23.203Z,1005.96
2023-01-10T03:08:23.178Z,1005.94
2023-01-10T03:09:23.199Z,1005.97
2023-01-10T03:10:23.151Z,1005.96
2023-01-10T03:11:23.145Z,1005.95
2023-01-10T03:12:23.192Z,1005.96
2023-01-10T03:13:23.139Z,1005.97
2023-01-10T03:14:23.111Z,1005.93
2023-01-10T03:15:23.133Z,1006.03
2023-01-10T03:16:23.126Z,1006.03
2023-01-10T03:17:23.075Z,1006.03
2023-01-10T03:18:23.067Z,1006.03
2023-01-10T03:19:23.099Z,1006.02
2023-01-10T03:20:23.065Z,1006.05
2023-01-10T03:21:23.087Z,1006.09
2023-01-10T03:22:23.676Z,1006.08
2023-01-10T03:23:23.035Z,1006.13
2023-01-10T03:24:23.006Z,1006.12
2023-01-10T03:25:22.996Z,1006.16
2023-01-10T03:26:22.964Z,1006.21
2023-01-10T03:27:23.341Z,1006.29
2023-01-10T03:28:22.980Z,1006.26
2023-01-10T03:29:22.951Z,1006.30
2023-01-10T03:30:22.948Z,1006.30
2023-01-10T03:31:23.020Z,1006.34
2023-01-10T03:32:22.937Z,1006.35
2023-01-10T03:33:22.976Z,1006.34
2023-01-10T03:34:22.905Z,1006.32
2023-01-10T03:35:22.882Z,1006.38
2023-01-10T03:36:22.869Z,1006.31
2023-01-10T03:37:22.877Z,1006.34
2023-01-10T03:38:22.851Z,1006.41
2023-01-10T03:39:22.887Z,1006.41
2023-01-10T03:40:22.809Z,1006.44
2023-01-10T03:41:22.805Z,1006.45
2023-01-10T03:42:22.787Z,1006.47
2023-01-10T03:43:22.811Z,1006.50
2023-01-10T03:44:22.780Z,1006.51
2023-01-10T03:45:22.793Z,1006.52
2023-01-10T03:46:22.766Z,1006.49
2023-01-10T03:47:22.763Z,1006.52
2023-01-10T03:48:22.753Z,1006.54
2023-01-10T03:49:22.732Z,1006.56
2023-01-10T03:50:22.728Z,1006.59
2023-01-10T03:51:22.735Z,1006.59
2023-01-10T03:52:22.679Z,1006.59
2023-01-10T03:53:22.683Z,1006.62
2023-01-10T03:54:22.657Z,1006.65
2023-01-10T03:55:22.658Z,1006.60
2023-01-10T03:56:22.664Z,1006.66
2023-01-10T03:57:22.624Z,1006.68
2023-01-10T03:58:22.611Z,1006.75
2023-01-10T03:59:22.603Z,1006.69
2023-01-10T04:00:22.592Z,1006.66
2023-01-10T04:01:22.669Z,1006.67
2023-01-10T04:02:22.611Z,1006.70
2023-01-10T04:03:22.576Z,1006.68
2023-01-10T04:04:22.596Z,1006.75
2023-01-10T04:05:22.530Z,1006.73
2023-01-10T04:06:22.526Z,1006.75
2023-01-10T04:07:22.519Z,1006.78
2023-01-10T04:08:22.531Z,1006.80
2023-01-10T04:09:22.500Z,1006.77
2023-01-10T04:10:25.158Z,1006.82
2023-01-10T04:11:22.470Z,1006.82
2023-01-10T04:12:22.459Z,1006.85
2023-01-10T04:13:22.446Z,1006.90
2023-01-10T04:14:22.475Z,1006.88
2023-01-10T04:15:22.441Z,1006.89
2023-01-10T04:16:22.496Z,1006.90
2023-01-10T04:17:22.407Z,1006.96
2023-01-10T04:18:22.388Z,1006.96
2023-01-10T04:19:22.376Z,1007.00
2023-01-10T04:20:22.422Z,1007.05
2023-01-10T04:21:22.370Z,1007.00
2023-01-10T04:22:22.347Z,1007.05
2023-01-10T04:23:22.320Z,1007.07
2023-01-10T04:24:22.317Z,1007.09
2023-01-10T04:25:22.322Z,1007.09
2023-01-10T04:26:22.356Z,1007.13
2023-01-10T04:27:22.284Z,1007.11
2023-01-10T04:28:24.437Z,1007.13
2023-01-10T04:29:22.310Z,1007.07
2023-01-10T04:30:22.253Z,1007.15
2023-01-10T04:31:22.337Z,1007.14
2023-01-10T04:32:22.456Z,1007.15
2023-01-10T04:33:22.262Z,1007.19
2023-01-10T04:34:22.193Z,1007.25
2023-01-10T04:35:22.206Z,1007.29
2023-01-10T04:36:22.188Z,1007.33
2023-01-10T04:37:22.191Z,1007.33
2023-01-10T04:38:22.190Z,1007.26
2023-01-10T04:39:22.158Z,1007.35
2023-01-10T04:40:22.137Z,1007.30
2023-01-10T04:41:22.137Z,1007.22
2023-01-10T04:42:22.117Z,1007.24
2023-01-10T04:43:22.149Z,1007.22
2023-01-10T04:44:22.161Z,1007.33
2023-01-10T04:45:22.126Z,1007.33
2023-01-10T04:46:22.070Z,1007.35
2023-01-10T04:47:22.062Z,1007.29
2023-01-10T04:48:22.041Z,1007.32
2023-01-10T04:49:22.037Z,1007.32
2023-01-10T04:50:22.069Z,1007.31
2023-01-10T04:51:22.057Z,1007.29
2023-01-10T04:52:22.000Z,1007.30
2023-01-10T04:53:22.003Z,1007.29
2023-01-10T04:54:22.004Z,1007.26
2023-01-10T04:55:21.962Z,1007.32
2023-01-10T04:56:22.016Z,1007.32
2023-01-10T04:57:21.947Z,1007.29
2023-01-10T04:58:21.932Z,1007.26
2023-01-10T04:59:21.929Z,1007.28
2023-01-10T05:00:21.918Z,1007.38
2023-01-10T05:01:22.010Z,1007.36
2023-01-10T05:02:22.038Z,1007.37
2023-01-10T05:03:21.879Z,1007.39
2023-01-10T05:04:21.890Z,1007.43
2023-01-10T05:05:21.875Z,1007.43
2023-01-10T05:06:21.867Z,1007.46
2023-01-10T05:07:21.839Z,1007.47
2023-01-10T05:08:21.871Z,1007.50
2023-01-10T05:09:21.804Z,1007.50
2023-01-10T05:10:21.796Z,1007.50
2023-01-10T05:11:21.779Z,1007.45
2023-01-10T05:12:21.803Z,1007.49
2023-01-10T05:13:21.769Z,1007.46
2023-01-10T05:14:21.838Z,1007.45
2023-01-10T05:15:21.775Z,1007.46
2023-01-10T05:16:21.800Z,1007.48
2023-01-10T05:17:21.719Z,1007.48
2023-01-10T05:18:21.711Z,1007.53
2023-01-10T05:19:21.689Z,1007.57
2023-01-10T05:20:21.739Z,1007.60
2023-01-10T05:21:21.670Z,1007.60
2023-01-10T05:22:21.655Z,1007.64
2023-01-10T05:23:21.656Z,1007.63
2023-01-10T05:24:21.646Z,1007.66
2023-01-10T05:25:21.664Z,1007.69
2023-01-10T05:26:21.643Z,1007.69
2023-01-10T05:27:21.611Z,1007.72
2023-01-10T05:28:21.643Z,1007.76
2023-01-10T05:29:21.590Z,1007.78
2023-01-10T05:30:21.574Z,1007.83
2023-01-10T05:31:21.596Z,1007.90
2023-01-10T05:32:21.549Z,1007.88
2023-01-10T05:33:21.550Z,1007.88
2023-01-10T05:34:21.566Z,1007.88
2023-01-10T05:35:21.502Z,1007.95
2023-01-10T05:36:21.520Z,1007.95
2023-01-10T05:37:21.486Z,1007.94
2023-01-10T05:38:21.545Z,1008.00
2023-01-10T05:39:21.461Z,1008.01
2023-01-10T05:40:21.512Z,1008.02
2023-01-10T05:41:21.790Z,1008.02
2023-01-10T05:42:21.436Z,1008.00
2023-01-10T05:43:21.448Z,1008.03
2023-01-10T05:44:21.425Z,1008.00
2023-01-10T05:45:21.437Z,1008.05
2023-01-10T05:46:21.401Z,1008.04
2023-01-10T05:47:21.402Z,1008.11
2023-01-10T05:48:21.380Z,1008.10
2023-01-10T05:49:21.374Z,1008.16
2023-01-10T05:50:21.366Z,1008.08
2023-01-10T05:51:21.356Z,1008.07
2023-01-10T05:52:21.330Z,1008.06
2023-01-10T05:53:21.395Z,1008.13
2023-01-10T05:54:21.330Z,1008.11
2023-01-10T05:55:21.299Z,1008.12
2023-01-10T05:56:21.331Z,1008.14
2023-01-10T05:57:21.273Z,1008.17
2023-01-10T05:58:21.273Z,1008.17
2023-01-10T05:59:28.016Z,1008.23
2023-01-10T06:00:21.376Z,1008.20
2023-01-10T06:01:21.278Z,1008.31
2023-01-10T06:02:21.333Z,1008.34
2023-01-10T06:03:21.212Z,1008.44
2023-01-10T06:04:21.232Z,1008.41
2023-01-10T06:05:21.170Z,1008.45
2023-01-10T06:06:21.195Z,1008.46
2023-01-10T06:07:21.178Z,1008.47
2023-01-10T06:08:21.173Z,1008.44
2023-01-10T06:09:21.161Z,1008.51
2023-01-10T06:10:21.142Z,1008.46
2023-01-10T06:11:21.125Z,1008.48
2023-01-10T06:12:21.106Z,1008.43
2023-01-10T06:13:21.087Z,1008.46
2023-01-10T06:14:21.080Z,1008.48
2023-01-10T06:15:21.089Z,1008.45
2023-01-10T06:16:21.095Z,1008.48
2023-01-10T06:17:21.035Z,1008.52
2023-01-10T06:18:21.056Z,1008.53
2023-01-10T06:19:21.019Z,1008.56
2023-01-10T06:20:21.016Z,1008.58
2023-01-10T06:21:21.039Z,1008.56
2023-01-10T06:22:20.983Z,1008.58
2023-01-10T06:23:20.999Z,1008.55
2023-01-10T06:24:20.980Z,1008.62
2023-01-10T06:25:20.956Z,1008.61
2023-01-10T06:26:20.942Z,1008.62
2023-01-10T06:27:20.976Z,1008.61
2023-01-10T06:28:20.900Z,1008.60
2023-01-10T06:29:20.949Z,1008.63
2023-01-10T06:30:20.941Z,1008.62
2023-01-10T06:31:22.593Z,1008.63
2023-01-10T06:32:20.888Z,1008.62
2023-01-10T06:33:20.922Z,1008.63
2023-01-10T06:34:20.889Z,1008.65
2023-01-10T06:35:20.895Z,1008.69
2023-01-10T06:36:20.848Z,1008.70
2023-01-10T06:37:20.807Z,1008.69
2023-01-10T06:38:20.804Z,1008.66
2023-01-10T06:39:20.827Z,1008.67
2023-01-10T06:40:20.794Z,1008.61
2023-01-10T06:41:20.772Z,1008.61
2023-01-10T06:42:20.752Z,1008.62
2023-01-10T06:43:20.745Z,1008.64
2023-01-10T06:44:20.740Z,1008.64
2023-01-10T06:45:20.744Z,1008.69
2023-01-10T06:46:20.763Z,1008.73
2023-01-10T06:47:20.701Z,1008.77
2023-01-10T06:48:20.941Z,1008.84
2023-01-10T06:49:20.691Z,1008.88
2023-01-10T06:50:20.691Z,1008.86
2023-01-10T06:51:20.682Z,1008.89
2023-01-10T06:52:20.635Z,1008.93
2023-01-10T06:53:20.652Z,1008.97
2023-01-10T06:54:20.617Z,1008.99
2023-01-10T06:55:20.656Z,1009.03
2023-01-10T06:56:20.626Z,1009.00
2023-01-10T06:57:20.574Z,1009.05
2023-01-10T06:58:20.572Z,1009.06
2023-01-10T06:59:20.573Z,1009.05
2023-01-10T07:00:20.564Z,1009.06
2023-01-10T07:01:20.892Z,1009.04
2023-01-10T07:02:20.625Z,1008.96
2023-01-10T07:03:20.506Z,1008.98
2023-01-10T07:04:20.513Z,1008.97
2023-01-10T07:05:20.499Z,1009.00
2023-01-10T07:06:20.490Z,1008.98
2023-01-10T07:07:20.510Z,1008.99
2023-01-10T07:08:20.473Z,1009.11
2023-01-10T07:09:20.445Z,1009.17
2023-01-10T07:10:20.456Z,1009.19
2023-01-10T07:11:20.425Z,1009.26
2023-01-10T07:12:20.415Z,1009.20
2023-01-10T07:13:20.420Z,1009.21
2023-01-10T07:14:20.407Z,1009.19
2023-01-10T07:15:20.383Z,1009.18
2023-01-10T07:16:20.403Z,1009.23
2023-01-10T07:17:20.359Z,1009.25
2023-01-10T07:18:20.361Z,1009.23
2023-01-10T07:19:20.350Z,1009.27
2023-01-10T07:20:20.341Z,1009.25
2023-01-10T07:21:20.307Z,1009.24
2023-01-10T07:22:20.317Z,1009.22
2023-01-10T07:23:20.303Z,1009.22
2023-01-10T07:24:20.297Z,1009.27
2023-01-10T07:25:20.267Z,1009.29
2023-01-10T07:26:20.249Z,1009.32
2023-01-10T07:27:20.238Z,1009.44
2023-01-10T07:28:20.273Z,1009.42
2023-01-10T07:29:20.212Z,1009.42
2023-01-10T07:30:20.231Z,1009.46
2023-01-10T07:31:20.299Z,1009.49
2023-01-10T07:32:20.229Z,1009.48
2023-01-10T07:33:20.207Z,1009.53
2023-01-10T07:34:20.177Z,1009.49
2023-01-10T07:35:20.140Z,1009.49
2023-01-10T07:36:20.145Z,1009.49
2023-01-10T07:37:20.141Z,1009.53
2023-01-10T07:38:20.156Z,1009.59
2023-01-10T07:39:20.139Z,1009.68
2023-01-10T07:40:20.097Z,1009.67
2023-01-10T07:41:20.113Z,1009.70
2023-01-10T07:42:20.075Z,1009.71
2023-01-10T07:43:20.085Z,1009.74
2023-01-10T07:44:20.062Z,1009.73
2023-01-10T07:45:20.102Z,1009.73
2023-01-10T07:46:20.195Z,1009.72
2023-01-10T07:47:20.037Z,1009.74
2023-01-10T07:48:19.994Z,1009.75
2023-01-10T07:49:20.000Z,1009.73
2023-01-10T07:50:20.067Z,1009.71
2023-01-10T07:51:19.979Z,1009.71
2023-01-10T07:52:19.995Z,1009.75
2023-01-10T07:53:19.973Z,1009.74
2023-01-10T07:54:19.976Z,1009.71
2023-01-10T07:55:19.955Z,1009.76
2023-01-10T07:56:19.953Z,1009.74
2023-01-10T07:57:19.909Z,1009.79
2023-01-10T07:58:19.889Z,1009.89
2023-01-10T07:59:19.893Z,1009.91
2023-01-10T08:00:19.895Z,1009.92
2023-01-10T08:01:19.935Z,1009.97
2023-01-10T08:02:19.890Z,1010.01
2023-01-10T08:03:19.945Z,1010.00
2023-01-10T08:04:19.825Z,1010.05
2023-01-10T08:05:19.849Z,1010.09
2023-01-10T08:06:19.824Z,1010.05
2023-01-10T08:07:19.850Z,1010.06
2023-01-10T08:08:19.772Z,1010.07
2023-01-10T08:09:19.779Z,1010.06
2023-01-10T08:10:19.768Z,1010.02
2023-01-10T08:11:19.792Z,1010.05
2023-01-10T08:12:19.723Z,1010.04
2023-01-10T08:13:19.795Z,1010.06
2023-01-10T08:14:19.773Z,1010.09
2023-01-10T08:15:19.707Z,1010.07
2023-01-10T08:16:19.777Z,1010.03
2023-01-10T08:17:19.694Z,1010.02
2023-01-10T08:18:19.703Z,1009.99
2023-01-10T08:19:19.664Z,1010.01
2023-01-10T08:20:19.648Z,1010.04
2023-01-10T08:21:19.639Z,1010.09
2023-01-10T08:22:19.636Z,1010.07
2023-01-10T08:23:19.680Z,1010.04
2023-01-10T08:24:19.605Z,1010.08
2023-01-10T08:25:19.617Z,1010.06
2023-01-10T08:26:19.650Z,1010.12
2023-01-10T08:27:19.562Z,1010.11
2023-01-10T08:28:19.593Z,1010.16
2023-01-10T08:29:19.570Z,1010.11
2023-01-10T08:30:19.544Z,1010.05
2023-01-10T08:31:19.542Z,1010.09
2023-01-10T08:32:19.528Z,1010.09
2023-01-10T08:33:19.487Z,1010.07
2023-01-10T08:34:19.483Z,1010.12
2023-01-10T08:35:19.498Z,1010.09
2023-01-10T08:36:19.457Z,1010.09
2023-01-10T08:37:19.453Z,1010.14
2023-01-10T08:38:19.446Z,1010.13
2023-01-10T08:39:19.435Z,1010.14
2023-01-10T08:40:19.437Z,1010.18
2023-01-10T08:41:19.458Z,1010.18
2023-01-10T08:42:19.393Z,1010.14
2023-01-10T08:43:19.398Z,1010.14
2023-01-10T08:44:19.400Z,1010.12
2023-01-10T08:45:19.359Z,1010.15
2023-01-10T08:46:19.431Z,1010.13
2023-01-10T08:47:19.336Z,1010.12
2023-01-10T08:48:19.319Z,1010.16
2023-01-10T08:49:19.319Z,1010.13
2023-01-10T08:50:19.357Z,1010.16
2023-01-10T08:51:19.293Z,1010.20
2023-01-10T08:52:19.363Z,1010.17
2023-01-10T08:53:19.273Z,1010.22
2023-01-10T08:54:19.262Z,1010.19
2023-01-10T08:55:19.260Z,1010.23
2023-01-10T08:56:19.249Z,1010.23
2023-01-10T08:57:19.219Z,1010.25
2023-01-10T08:58:19.256Z,1010.30
2023-01-10T08:59:19.224Z,1010.31
2023-01-10T09:00:19.195Z,1010.36
2023-01-10T09:01:19.317Z,1010.29
2023-01-10T09:02:19.189Z,1010.25
2023-01-10T09:03:19.263Z,1010.27
2023-01-10T09:04:19.140Z,1010.24
2023-01-10T09:05:26.977Z,1010.27
2023-01-10T09:06:19.143Z,1010.28
2023-01-10T09:07:19.116Z,1010.30
2023-01-10T09:08:19.116Z,1010.32
2023-01-10T09:09:19.142Z,1010.30
2023-01-10T09:10:19.080Z,1010.29
2023-01-10T09:11:19.093Z,1010.27
2023-01-10T09:12:19.081Z,1010.31
2023-01-10T09:13:19.080Z,1010.34
2023-01-10T09:14:19.022Z,1010.35
2023-01-10T09:15:19.061Z,1010.34
2023-01-10T09:16:19.074Z,1010.39
2023-01-10T09:17:19.004Z,1010.43
2023-01-10T09:18:21.298Z,1010.38
2023-01-10T09:19:18.979Z,1010.44
2023-01-10T09:20:18.952Z,1010.34
2023-01-10T09:21:18.986Z,1010.33
2023-01-10T09:22:18.933Z,1010.30
2023-01-10T09:23:18.961Z,1010.31
2023-01-10T09:24:18.936Z,1010.34
2023-01-10T09:25:18.921Z,1010.31
2023-01-10T09:26:18.920Z,1010.31
2023-01-10T09:27:18.900Z,1010.31
2023-01-10T09:28:18.891Z,1010.34
2023-01-10T09:29:18.918Z,1010.36
2023-01-10T09:30:18.843Z,1010.33
2023-01-10T09:31:18.974Z,1010.33
2023-01-10T09:32:18.859Z,1010.35
2023-01-10T09:33:18.828Z,1010.41
2023-01-10T09:34:18.811Z,1010.41
2023-01-10T09:35:18.798Z,1010.43
2023-01-10T09:36:18.811Z,1010.47
2023-01-10T09:37:18.819Z,1010.49
2023-01-10T09:38:18.785Z,1010.47
2023-01-10T09:39:18.780Z,1010.47
2023-01-10T09:40:18.750Z,1010.56
2023-01-10T09:41:18.753Z,1010.49
2023-01-10T09:42:18.720Z,1010.47
2023-01-10T09:43:18.760Z,1010.47
2023-01-10T09:44:18.693Z,1010.54
2023-01-10T09:45:18.680Z,1010.55
2023-01-10T09:46:18.709Z,1010.51
2023-01-10T09:47:22.789Z,1010.52
2023-01-10T09:48:18.648Z,1010.56
2023-01-10T09:49:18.692Z,1010.60
2023-01-10T09:50:18.768Z,1010.57
2023-01-10T09:51:18.650Z,1010.60
2023-01-10T09:52:18.623Z,1010.62
2023-01-10T09:53:18.605Z,1010.67
2023-01-10T09:54:18.605Z,1010.64
2023-01-10T09:55:18.590Z,1010.70
2023-01-10T09:56:18.558Z,1010.69
2023-01-10T09:57:18.540Z,1010.72
2023-01-10T09:58:18.549Z,1010.75
2023-01-10T09:59:18.585Z,1010.74
2023-01-10T10:00:18.592Z,1010.73
2023-01-10T10:01:18.652Z,1010.71
2023-01-10T10:02:18.508Z,1010.73
2023-01-10T10:03:18.496Z,1010.64
2023-01-10T10:04:18.524Z,1010.67
2023-01-10T10:05:18.485Z,1010.70
2023-01-10T10:06:18.455Z,1010.68
2023-01-10T10:07:18.465Z,1010.67
2023-01-10T10:08:18.450Z,1010.71
2023-01-10T10:09:18.481Z,1010.64
2023-01-10T10:10:18.421Z,1010.64
2023-01-10T10:11:18.425Z,1010.64
2023-01-10T10:12:18.387Z,1010.58
2023-01-10T10:13:26.914Z,1010.62
2023-01-10T10:14:18.366Z,1010.67
2023-01-10T10:15:18.509Z,1010.65
2023-01-10T10:16:18.364Z,1010.64
2023-01-10T10:17:18.352Z,1010.60
2023-01-10T10:18:18.312Z,1010.63
2023-01-10T10:19:18.357Z,1010.56
2023-01-10T10:20:18.328Z,1010.57
2023-01-10T10:21:18.266Z,1010.61
2023-01-10T10:22:19.871Z,1010.67
2023-01-10T10:23:18.245Z,1010.62
2023-01-10T10:24:18.245Z,1010.59
2023-01-10T10:25:18.234Z,1010.61
2023-01-10T10:26:18.308Z,1010.54
2023-01-10T10:27:18.209Z,1010.63
2023-01-10T10:28:18.230Z,1010.64
2023-01-10T10:29:18.186Z,1010.51
2023-01-10T10:30:18.218Z,1010.51
2023-01-10T10:31:18.215Z,1010.46
2023-01-10T10:32:18.146Z,1010.47
2023-01-10T10:33:18.156Z,1010.51
2023-01-10T10:34:18.165Z,1010.52
2023-01-10T10:35:18.127Z,1010.49
2023-01-10T10:36:18.155Z,1010.42
2023-01-10T10:37:18.146Z,1010.45
2023-01-10T10:38:18.129Z,1010.41
2023-01-10T10:39:18.086Z,1010.38
2023-01-10T10:40:18.071Z,1010.45
2023-01-10T10:41:18.046Z,1010.43
2023-01-10T10:42:18.081Z,1010.44
2023-01-10T10:43:18.026Z,1010.45
2023-01-10T10:44:18.043Z,1010.49
2023-01-10T10:45:18.008Z,1010.45
2023-01-10T10:46:18.073Z,1010.45
2023-01-10T10:47:18.012Z,1010.49
2023-01-10T10:48:17.981Z,1010.43
2023-01-10T10:49:18.844Z,1010.48
2023-01-10T10:50:17.991Z,1010.45
2023-01-10T10:51:17.928Z,1010.53
2023-01-10T10:52:17.924Z,1010.47
2023-01-10T10:53:17.932Z,1010.48
2023-01-10T10:54:17.905Z,1010.49
2023-01-10T10:55:17.918Z,1010.43
2023-01-10T10:56:17.885Z,1010.45
2023-01-10T10:57:17.866Z,1010.53
2023-01-10T10:58:17.876Z,1010.42
2023-01-10T10:59:17.848Z,1010.45
2023-01-10T11:00:17.824Z,1010.37
2023-01-10T11:01:17.955Z,1010.45
2023-01-10T11:02:17.800Z,1010.44
2023-01-10T11:03:17.828Z,1010.40
2023-01-10T11:04:17.783Z,1010.42
2023-01-10T11:05:17.775Z,1010.35
2023-01-10T11:06:17.756Z,1010.36
2023-01-10T11:07:17.754Z,1010.35
2023-01-10T11:08:17.757Z,1010.38
2023-01-10T11:09:17.728Z,1010.34
2023-01-10T11:10:17.717Z,1010.26
2023-01-10T11:11:17.703Z,1010.23
2023-01-10T11:12:17.701Z,1010.28
2023-01-10T11:13:17.714Z,1010.28
2023-01-10T11:14:17.673Z,1010.24
2023-01-10T11:15:17.679Z,1010.15
2023-01-10T11:16:17.701Z,1010.18
2023-01-10T11:17:17.652Z,1010.19
2023-01-10T11:18:17.655Z,1010.22
2023-01-10T11:19:17.647Z,1010.17
2023-01-10T11:20:17.670Z,1010.15
2023-01-10T11:21:19.196Z,1010.15
2023-01-10T11:22:17.577Z,1010.13
2023-01-10T11:23:17.605Z,1010.17
2023-01-10T11:24:17.573Z,1010.18
2023-01-10T11:25:17.588Z,1010.16
2023-01-10T11:26:17.535Z,1010.16
2023-01-10T11:27:17.524Z,1010.13
2023-01-10T11:28:17.533Z,1010.19
2023-01-10T11:29:17.500Z,1010.19
2023-01-10T11:30:17.501Z,1010.18
2023-01-10T11:31:17.503Z,1010.19
2023-01-10T11:32:17.486Z,1010.18
2023-01-10T11:33:17.486Z,1010.18
2023-01-10T11:34:17.445Z,1010.20
2023-01-10T11:35:17.434Z,1010.19
2023-01-10T11:36:17.414Z,1010.20
2023-01-10T11:37:17.413Z,1010.22
2023-01-10T11:38:17.390Z,1010.18
2023-01-10T11:39:17.409Z,1010.19
2023-01-10T11:40:17.372Z,1010.23
2023-01-10T11:41:17.366Z,1010.21
2023-01-10T11:42:17.344Z,1010.23
2023-01-10T11:43:17.352Z,1010.17
2023-01-10T11:44:17.350Z,1010.23
2023-01-10T11:45:17.342Z,1010.19
2023-01-10T11:46:17.344Z,1010.22
2023-01-10T11:47:17.310Z,1010.28
2023-01-10T11:48:18.507Z,1010.22
2023-01-10T11:49:17.297Z,1010.23
2023-01-10T11:50:17.260Z,1010.18
2023-01-10T11:51:17.251Z,1010.18
2023-01-10T11:52:17.240Z,1010.16
2023-01-10T11:53:17.238Z,1010.14
2023-01-10T11:54:17.231Z,1010.13
2023-01-10T11:55:17.203Z,1010.11
2023-01-10T11:56:17.198Z,1010.13
2023-01-10T11:57:17.199Z,1010.08
2023-01-10T11:58:17.216Z,1010.04
2023-01-10T11:59:17.182Z,1010.06
2023-01-10T12:00:17.145Z,1010.10
2023-01-10T12:01:17.153Z,1010.07
2023-01-10T12:02:17.138Z,1010.02
2023-01-10T12:03:17.115Z,1010.09
2023-01-10T12:04:17.178Z,1010.08
2023-01-10T12:05:17.161Z,1010.06